sensor_id;sensor_type;location;lat;lon;timestamp;P1;durP1;ratioP1;P2;durP2;ratioP2
7503;SDS011;3793;48.136;11.536;2022-08-02T00:01:33;1.63;;;1.40;;
7503;SDS011;3793;48.136;11.536;2022-08-02T00:04:05;1.77;;;1.33;;
7503;SDS011;3793;48.136;11.536;2022-08-02T00:06:53;1.60;;;1.27;;
7503;SDS011;3793;48.136;11.536;2022-08-02T00:09:39;1.40;;;1.30;;
7503;SDS011;3793;48.136;11.536;2022-08-02T00:12:31;3.40;;;1.40;;
7503;SDS011;3793;48.136;11.536;2022-08-02T00:15:44;1.60;;;1.50;;
7503;SDS011;3793;48.136;11.536;2022-08-02T00:18:22;1.17;;;1.00;;
7503;SDS011;3793;48.136;11.536;2022-08-02T00:20:50;1.77;;;1.15;;
7503;SDS011;3793;48.136;11.536;2022-08-02T00:23:21;1.40;;;1.30;;
7503;SDS011;3793;48.136;11.536;2022-08-02T00:26:12;2.00;;;1.50;;
7503;SDS011;3793;48.136;11.536;2022-08-02T00:28:41;1.45;;;1.35;;
7503;SDS011;3793;48.136;11.536;2022-08-02T00:31:22;1.40;;;1.30;;
7503;SDS011;3793;48.136;11.536;2022-08-02T00:34:00;1.40;;;1.30;;
7503;SDS011;3793;48.136;11.536;2022-08-02T00:36:29;1.65;;;1.17;;
7503;SDS011;3793;48.136;11.536;2022-08-02T00:39:39;1.73;;;1.40;;
7503;SDS011;3793;48.136;11.536;2022-08-02T00:45:08;1.95;;;1.52;;
7503;SDS011;3793;48.136;11.536;2022-08-02T00:47:50;1.55;;;1.45;;
7503;SDS011;3793;48.136;11.536;2022-08-02T00:50:17;2.20;;;1.48;;
7503;SDS011;3793;48.136;11.536;2022-08-02T00:52:44;1.98;;;1.70;;
7503;SDS011;3793;48.136;11.536;2022-08-02T00:55:10;3.60;;;1.73;;
7503;SDS011;3793;48.136;11.536;2022-08-02T00:57:43;1.50;;;1.40;;
7503;SDS011;3793;48.136;11.536;2022-08-02T01:00:11;1.50;;;1.40;;
7503;SDS011;3793;48.136;11.536;2022-08-02T01:02:42;2.25;;;1.80;;
7503;SDS011;3793;48.136;11.536;2022-08-02T01:05:10;2.08;;;1.52;;
7503;SDS011;3793;48.136;11.536;2022-08-02T01:07:53;1.92;;;1.40;;
7503;SDS011;3793;48.136;11.536;2022-08-02T01:10:26;2.72;;;1.77;;
7503;SDS011;3793;48.136;11.536;2022-08-02T01:12:54;2.05;;;1.55;;
7503;SDS011;3793;48.136;11.536;2022-08-02T01:15:23;3.03;;;1.85;;
7503;SDS011;3793;48.136;11.536;2022-08-02T01:17:55;3.17;;;1.50;;
7503;SDS011;3793;48.136;11.536;2022-08-02T01:20:45;2.70;;;1.70;;
7503;SDS011;3793;48.136;11.536;2022-08-02T01:23:20;2.22;;;1.92;;
7503;SDS011;3793;48.136;11.536;2022-08-02T01:25:56;1.65;;;1.55;;
7503;SDS011;3793;48.136;11.536;2022-08-02T01:28:42;1.55;;;1.45;;
7503;SDS011;3793;48.136;11.536;2022-08-02T01:31:25;2.38;;;1.80;;
7503;SDS011;3793;48.136;11.536;2022-08-02T01:34:05;2.20;;;1.80;;
7503;SDS011;3793;48.136;11.536;2022-08-02T01:39:44;2.63;;;1.90;;
7503;SDS011;3793;48.136;11.536;2022-08-02T01:42:31;2.13;;;1.50;;
7503;SDS011;3793;48.136;11.536;2022-08-02T01:45:03;2.33;;;1.40;;
7503;SDS011;3793;48.136;11.536;2022-08-02T01:47:32;2.85;;;1.90;;
7503;SDS011;3793;48.136;11.536;2022-08-02T01:50:04;1.73;;;1.63;;
7503;SDS011;3793;48.136;11.536;2022-08-02T01:52:40;3.03;;;1.83;;
7503;SDS011;3793;48.136;11.536;2022-08-02T01:55:11;1.80;;;1.70;;
7503;SDS011;3793;48.136;11.536;2022-08-02T01:57:41;2.00;;;1.80;;
7503;SDS011;3793;48.136;11.536;2022-08-02T02:06:21;2.47;;;1.83;;
7503;SDS011;3793;48.136;11.536;2022-08-02T02:09:48;2.72;;;1.70;;
7503;SDS011;3793;48.136;11.536;2022-08-02T02:11:58;3.55;;;1.92;;
7503;SDS011;3793;48.136;11.536;2022-08-02T02:14:35;2.00;;;1.70;;
7503;SDS011;3793;48.136;11.536;2022-08-02T02:17:05;1.73;;;1.60;;
7503;SDS011;3793;48.136;11.536;2022-08-02T02:19:35;3.20;;;1.80;;
7503;SDS011;3793;48.136;11.536;2022-08-02T02:22:04;1.80;;;1.60;;
7503;SDS011;3793;48.136;11.536;2022-08-02T02:24:31;2.28;;;1.67;;
7503;SDS011;3793;48.136;11.536;2022-08-02T02:26:58;3.60;;;1.85;;
7503;SDS011;3793;48.136;11.536;2022-08-02T02:29:26;3.35;;;1.90;;
7503;SDS011;3793;48.136;11.536;2022-08-02T02:31:55;3.70;;;2.20;;
7503;SDS011;3793;48.136;11.536;2022-08-02T02:34:25;2.00;;;1.80;;
7503;SDS011;3793;48.136;11.536;2022-08-02T02:36:53;2.10;;;1.90;;
7503;SDS011;3793;48.136;11.536;2022-08-02T02:39:26;2.45;;;2.13;;
7503;SDS011;3793;48.136;11.536;2022-08-02T02:42:02;2.53;;;2.15;;
7503;SDS011;3793;48.136;11.536;2022-08-02T02:44:48;2.83;;;2.03;;
7503;SDS011;3793;48.136;11.536;2022-08-02T02:47:37;2.22;;;1.98;;
7503;SDS011;3793;48.136;11.536;2022-08-02T02:50:31;2.15;;;1.92;;
7503;SDS011;3793;48.136;11.536;2022-08-02T02:53:15;2.08;;;1.88;;
7503;SDS011;3793;48.136;11.536;2022-08-02T02:59:19;2.72;;;2.08;;
7503;SDS011;3793;48.136;11.536;2022-08-02T03:02:23;2.20;;;1.90;;
7503;SDS011;3793;48.136;11.536;2022-08-02T03:05:05;2.50;;;1.85;;
7503;SDS011;3793;48.136;11.536;2022-08-02T03:07:56;2.92;;;1.80;;
7503;SDS011;3793;48.136;11.536;2022-08-02T03:10:29;2.60;;;1.85;;
7503;SDS011;3793;48.136;11.536;2022-08-02T03:13:07;4.13;;;2.40;;
7503;SDS011;3793;48.136;11.536;2022-08-02T03:15:39;4.20;;;2.30;;
7503;SDS011;3793;48.136;11.536;2022-08-02T03:21:00;2.72;;;1.90;;
7503;SDS011;3793;48.136;11.536;2022-08-02T03:23:34;3.28;;;2.00;;
7503;SDS011;3793;48.136;11.536;2022-08-02T03:26:17;2.60;;;1.98;;
7503;SDS011;3793;48.136;11.536;2022-08-02T03:29:00;2.38;;;2.17;;
7503;SDS011;3793;48.136;11.536;2022-08-02T03:31:36;3.47;;;1.80;;
7503;SDS011;3793;48.136;11.536;2022-08-02T03:34:26;2.50;;;1.98;;
7503;SDS011;3793;48.136;11.536;2022-08-02T03:37:17;2.30;;;2.10;;
7503;SDS011;3793;48.136;11.536;2022-08-02T03:39:50;2.20;;;2.00;;
7503;SDS011;3793;48.136;11.536;2022-08-02T03:42:29;2.10;;;1.90;;
7503;SDS011;3793;48.136;11.536;2022-08-02T03:45:19;2.25;;;1.80;;
7503;SDS011;3793;48.136;11.536;2022-08-02T03:47:49;3.88;;;2.20;;
7503;SDS011;3793;48.136;11.536;2022-08-02T03:50:19;4.90;;;2.80;;
7503;SDS011;3793;48.136;11.536;2022-08-02T03:52:51;2.38;;;1.90;;
7503;SDS011;3793;48.136;11.536;2022-08-02T03:55:19;3.00;;;2.20;;
7503;SDS011;3793;48.136;11.536;2022-08-02T03:57:46;3.08;;;2.28;;
7503;SDS011;3793;48.136;11.536;2022-08-02T04:00:19;2.40;;;2.20;;
7503;SDS011;3793;48.136;11.536;2022-08-02T04:03:11;3.95;;;2.40;;
7503;SDS011;3793;48.136;11.536;2022-08-02T04:05:41;4.22;;;2.47;;
7503;SDS011;3793;48.136;11.536;2022-08-02T04:08:22;3.47;;;2.50;;
7503;SDS011;3793;48.136;11.536;2022-08-02T04:10:48;4.15;;;2.20;;
7503;SDS011;3793;48.136;11.536;2022-08-02T04:13:33;2.35;;;2.13;;
7503;SDS011;3793;48.136;11.536;2022-08-02T04:16:02;2.53;;;2.33;;
7503;SDS011;3793;48.136;11.536;2022-08-02T04:18:31;4.13;;;2.30;;
7503;SDS011;3793;48.136;11.536;2022-08-02T04:20:59;3.58;;;2.58;;
7503;SDS011;3793;48.136;11.536;2022-08-02T04:23:27;3.25;;;2.50;;
7503;SDS011;3793;48.136;11.536;2022-08-02T04:26:00;3.72;;;2.30;;
7503;SDS011;3793;48.136;11.536;2022-08-02T04:28:29;4.07;;;2.60;;
7503;SDS011;3793;48.136;11.536;2022-08-02T04:30:57;2.60;;;2.20;;
7503;SDS011;3793;48.136;11.536;2022-08-02T04:33:24;4.20;;;2.45;;
7503;SDS011;3793;48.136;11.536;2022-08-02T04:35:52;4.15;;;2.20;;
7503;SDS011;3793;48.136;11.536;2022-08-02T04:38:20;3.50;;;2.72;;
7503;SDS011;3793;48.136;11.536;2022-08-02T04:40:49;6.13;;;2.50;;
7503;SDS011;3793;48.136;11.536;2022-08-02T04:43:16;4.32;;;2.72;;
7503;SDS011;3793;48.136;11.536;2022-08-02T04:45:43;3.38;;;2.53;;
7503;SDS011;3793;48.136;11.536;2022-08-02T04:48:10;4.90;;;2.40;;
7503;SDS011;3793;48.136;11.536;2022-08-02T04:50:36;2.75;;;2.28;;
7503;SDS011;3793;48.136;11.536;2022-08-02T04:53:05;4.50;;;2.50;;
7503;SDS011;3793;48.136;11.536;2022-08-02T04:55:31;2.70;;;2.50;;
7503;SDS011;3793;48.136;11.536;2022-08-02T04:57:58;4.00;;;2.40;;
7503;SDS011;3793;48.136;11.536;2022-08-02T05:00:25;3.65;;;2.50;;
7503;SDS011;3793;48.136;11.536;2022-08-02T05:02:51;4.45;;;2.47;;
7503;SDS011;3793;48.136;11.536;2022-08-02T05:05:18;3.08;;;2.33;;
7503;SDS011;3793;48.136;11.536;2022-08-02T05:07:45;2.95;;;1.95;;
7503;SDS011;3793;48.136;11.536;2022-08-02T05:10:13;3.92;;;2.80;;
7503;SDS011;3793;48.136;11.536;2022-08-02T05:12:40;4.07;;;2.40;;
7503;SDS011;3793;48.136;11.536;2022-08-02T05:15:07;2.90;;;2.22;;
7503;SDS011;3793;48.136;11.536;2022-08-02T05:17:34;2.58;;;2.20;;
7503;SDS011;3793;48.136;11.536;2022-08-02T05:20:01;4.45;;;2.03;;
7503;SDS011;3793;48.136;11.536;2022-08-02T05:22:27;2.47;;;2.22;;
7503;SDS011;3793;48.136;11.536;2022-08-02T05:24:54;4.13;;;2.58;;
7503;SDS011;3793;48.136;11.536;2022-08-02T05:27:22;4.25;;;2.53;;
7503;SDS011;3793;48.136;11.536;2022-08-02T05:29:48;3.72;;;2.75;;
7503;SDS011;3793;48.136;11.536;2022-08-02T05:32:16;3.53;;;2.60;;
7503;SDS011;3793;48.136;11.536;2022-08-02T05:34:42;3.20;;;2.80;;
7503;SDS011;3793;48.136;11.536;2022-08-02T05:37:09;3.05;;;2.38;;
7503;SDS011;3793;48.136;11.536;2022-08-02T05:39:35;4.65;;;2.38;;
7503;SDS011;3793;48.136;11.536;2022-08-02T05:42:02;5.30;;;2.38;;
7503;SDS011;3793;48.136;11.536;2022-08-02T05:44:30;3.00;;;2.38;;
7503;SDS011;3793;48.136;11.536;2022-08-02T05:46:57;2.25;;;1.90;;
7503;SDS011;3793;48.136;11.536;2022-08-02T05:49:23;2.72;;;2.10;;
7503;SDS011;3793;48.136;11.536;2022-08-02T05:51:51;2.83;;;1.80;;
7503;SDS011;3793;48.136;11.536;2022-08-02T05:54:25;2.55;;;1.63;;
7503;SDS011;3793;48.136;11.536;2022-08-02T05:56:54;2.67;;;1.98;;
7503;SDS011;3793;48.136;11.536;2022-08-02T05:59:25;4.05;;;1.90;;
7503;SDS011;3793;48.136;11.536;2022-08-02T06:01:55;2.28;;;2.00;;
7503;SDS011;3793;48.136;11.536;2022-08-02T06:04:24;2.00;;;1.80;;
7503;SDS011;3793;48.136;11.536;2022-08-02T06:06:51;3.33;;;2.10;;
7503;SDS011;3793;48.136;11.536;2022-08-02T06:09:20;3.67;;;1.98;;
7503;SDS011;3793;48.136;11.536;2022-08-02T06:11:48;1.90;;;1.75;;
7503;SDS011;3793;48.136;11.536;2022-08-02T06:14:16;3.90;;;1.50;;
7503;SDS011;3793;48.136;11.536;2022-08-02T06:16:43;1.85;;;1.60;;
7503;SDS011;3793;48.136;11.536;2022-08-02T06:19:12;1.98;;;1.83;;
7503;SDS011;3793;48.136;11.536;2022-08-02T06:21:39;3.70;;;2.15;;
7503;SDS011;3793;48.136;11.536;2022-08-02T06:24:06;2.10;;;1.75;;
7503;SDS011;3793;48.136;11.536;2022-08-02T06:26:34;2.05;;;1.55;;
7503;SDS011;3793;48.136;11.536;2022-08-02T06:29:01;3.72;;;1.80;;
7503;SDS011;3793;48.136;11.536;2022-08-02T06:31:28;2.47;;;1.70;;
7503;SDS011;3793;48.136;11.536;2022-08-02T06:33:55;2.13;;;1.80;;
7503;SDS011;3793;48.136;11.536;2022-08-02T06:36:26;2.15;;;1.73;;
7503;SDS011;3793;48.136;11.536;2022-08-02T06:39:00;3.15;;;1.80;;
7503;SDS011;3793;48.136;11.536;2022-08-02T06:41:28;1.73;;;1.63;;
7503;SDS011;3793;48.136;11.536;2022-08-02T06:43:58;2.40;;;2.20;;
7503;SDS011;3793;48.136;11.536;2022-08-02T06:46:26;2.72;;;1.48;;
7503;SDS011;3793;48.136;11.536;2022-08-02T06:48:52;4.00;;;2.08;;
7503;SDS011;3793;48.136;11.536;2022-08-02T06:51:19;3.72;;;1.88;;
7503;SDS011;3793;48.136;11.536;2022-08-02T06:53:48;3.38;;;1.80;;
7503;SDS011;3793;48.136;11.536;2022-08-02T06:56:15;2.03;;;1.70;;
7503;SDS011;3793;48.136;11.536;2022-08-02T06:58:42;8.27;;;2.00;;
7503;SDS011;3793;48.136;11.536;2022-08-02T07:01:08;2.60;;;1.75;;
7503;SDS011;3793;48.136;11.536;2022-08-02T07:03:35;2.63;;;1.85;;
7503;SDS011;3793;48.136;11.536;2022-08-02T07:06:02;2.03;;;1.73;;
7503;SDS011;3793;48.136;11.536;2022-08-02T07:08:29;3.75;;;1.77;;
7503;SDS011;3793;48.136;11.536;2022-08-02T07:10:58;2.05;;;1.60;;
7503;SDS011;3793;48.136;11.536;2022-08-02T07:13:25;6.60;;;1.90;;
7503;SDS011;3793;48.136;11.536;2022-08-02T07:15:52;1.60;;;1.50;;
7503;SDS011;3793;48.136;11.536;2022-08-02T07:18:19;2.10;;;1.60;;
7503;SDS011;3793;48.136;11.536;2022-08-02T07:20:46;4.15;;;1.80;;
7503;SDS011;3793;48.136;11.536;2022-08-02T07:23:12;3.00;;;1.58;;
7503;SDS011;3793;48.136;11.536;2022-08-02T07:25:39;2.92;;;1.50;;
7503;SDS011;3793;48.136;11.536;2022-08-02T07:28:22;3.00;;;1.63;;
7503;SDS011;3793;48.136;11.536;2022-08-02T07:30:48;3.40;;;1.80;;
7503;SDS011;3793;48.136;11.536;2022-08-02T07:33:15;3.22;;;1.70;;
7503;SDS011;3793;48.136;11.536;2022-08-02T07:35:42;3.15;;;1.77;;
7503;SDS011;3793;48.136;11.536;2022-08-02T07:38:09;2.47;;;1.70;;
7503;SDS011;3793;48.136;11.536;2022-08-02T07:40:36;3.15;;;1.58;;
7503;SDS011;3793;48.136;11.536;2022-08-02T07:43:02;2.08;;;1.70;;
7503;SDS011;3793;48.136;11.536;2022-08-02T07:45:30;4.10;;;1.80;;
7503;SDS011;3793;48.136;11.536;2022-08-02T07:47:57;2.00;;;1.60;;
7503;SDS011;3793;48.136;11.536;2022-08-02T07:50:24;2.85;;;1.70;;
7503;SDS011;3793;48.136;11.536;2022-08-02T07:52:52;1.92;;;1.45;;
7503;SDS011;3793;48.136;11.536;2022-08-02T07:55:18;2.30;;;1.60;;
7503;SDS011;3793;48.136;11.536;2022-08-02T07:57:45;2.13;;;1.52;;
7503;SDS011;3793;48.136;11.536;2022-08-02T08:00:12;1.60;;;1.30;;
7503;SDS011;3793;48.136;11.536;2022-08-02T08:02:41;1.52;;;1.25;;
7503;SDS011;3793;48.136;11.536;2022-08-02T08:05:08;1.75;;;1.40;;
7503;SDS011;3793;48.136;11.536;2022-08-02T08:07:36;1.80;;;1.60;;
7503;SDS011;3793;48.136;11.536;2022-08-02T08:10:03;3.20;;;1.55;;
7503;SDS011;3793;48.136;11.536;2022-08-02T08:12:30;2.25;;;1.60;;
7503;SDS011;3793;48.136;11.536;2022-08-02T08:14:56;1.80;;;1.33;;
7503;SDS011;3793;48.136;11.536;2022-08-02T08:17:23;2.58;;;1.52;;
7503;SDS011;3793;48.136;11.536;2022-08-02T08:19:51;3.45;;;1.95;;
7503;SDS011;3793;48.136;11.536;2022-08-02T08:22:18;2.25;;;1.30;;
7503;SDS011;3793;48.136;11.536;2022-08-02T08:24:45;3.60;;;1.50;;
7503;SDS011;3793;48.136;11.536;2022-08-02T08:27:12;1.45;;;1.10;;
7503;SDS011;3793;48.136;11.536;2022-08-02T08:29:39;1.98;;;1.23;;
7503;SDS011;3793;48.136;11.536;2022-08-02T08:32:06;2.60;;;1.38;;
7503;SDS011;3793;48.136;11.536;2022-08-02T08:34:33;1.58;;;1.20;;
7503;SDS011;3793;48.136;11.536;2022-08-02T08:37:01;1.20;;;1.10;;
7503;SDS011;3793;48.136;11.536;2022-08-02T08:39:28;1.33;;;1.23;;
7503;SDS011;3793;48.136;11.536;2022-08-02T08:41:55;1.80;;;1.15;;
7503;SDS011;3793;48.136;11.536;2022-08-02T08:44:21;1.30;;;1.05;;
7503;SDS011;3793;48.136;11.536;2022-08-02T08:46:52;1.88;;;1.40;;
7503;SDS011;3793;48.136;11.536;2022-08-02T08:49:28;1.67;;;1.30;;
7503;SDS011;3793;48.136;11.536;2022-08-02T08:52:00;1.75;;;1.48;;
7503;SDS011;3793;48.136;11.536;2022-08-02T08:54:37;1.77;;;1.65;;
7503;SDS011;3793;48.136;11.536;2022-08-02T08:57:22;2.17;;;1.48;;
7503;SDS011;3793;48.136;11.536;2022-08-02T09:00:08;4.57;;;1.48;;
7503;SDS011;3793;48.136;11.536;2022-08-02T09:02:41;3.13;;;1.30;;
7503;SDS011;3793;48.136;11.536;2022-08-02T09:05:12;2.13;;;1.38;;
7503;SDS011;3793;48.136;11.536;2022-08-02T09:07:41;3.53;;;1.00;;
7503;SDS011;3793;48.136;11.536;2022-08-02T09:10:32;1.50;;;1.30;;
7503;SDS011;3793;48.136;11.536;2022-08-02T09:13:15;1.52;;;1.30;;
7503;SDS011;3793;48.136;11.536;2022-08-02T09:15:51;2.10;;;1.80;;
7503;SDS011;3793;48.136;11.536;2022-08-02T09:18:27;1.83;;;1.20;;
7503;SDS011;3793;48.136;11.536;2022-08-02T09:21:02;1.50;;;1.40;;
7503;SDS011;3793;48.136;11.536;2022-08-02T09:23:34;2.38;;;1.70;;
7503;SDS011;3793;48.136;11.536;2022-08-02T09:26:19;1.38;;;1.27;;
7503;SDS011;3793;48.136;11.536;2022-08-02T09:28:49;1.30;;;1.20;;
7503;SDS011;3793;48.136;11.536;2022-08-02T09:31:22;1.70;;;1.20;;
7503;SDS011;3793;48.136;11.536;2022-08-02T09:33:52;2.05;;;1.27;;
7503;SDS011;3793;48.136;11.536;2022-08-02T09:36:35;2.20;;;1.20;;
7503;SDS011;3793;48.136;11.536;2022-08-02T09:39:05;1.30;;;1.20;;
7503;SDS011;3793;48.136;11.536;2022-08-02T09:41:40;1.65;;;1.55;;
7503;SDS011;3793;48.136;11.536;2022-08-02T09:44:14;2.20;;;1.20;;
7503;SDS011;3793;48.136;11.536;2022-08-02T09:46:42;3.05;;;1.42;;
7503;SDS011;3793;48.136;11.536;2022-08-02T09:49:12;1.60;;;1.40;;
7503;SDS011;3793;48.136;11.536;2022-08-02T09:51:59;2.08;;;1.58;;
7503;SDS011;3793;48.136;11.536;2022-08-02T09:54:31;1.80;;;1.52;;
7503;SDS011;3793;48.136;11.536;2022-08-02T09:57:04;2.80;;;1.35;;
7503;SDS011;3793;48.136;11.536;2022-08-02T09:59:38;2.45;;;1.30;;
7503;SDS011;3793;48.136;11.536;2022-08-02T10:02:18;3.05;;;1.40;;
7503;SDS011;3793;48.136;11.536;2022-08-02T10:04:56;1.85;;;1.55;;
7503;SDS011;3793;48.136;11.536;2022-08-02T10:07:28;2.75;;;1.38;;
7503;SDS011;3793;48.136;11.536;2022-08-02T10:10:06;1.30;;;1.20;;
7503;SDS011;3793;48.136;11.536;2022-08-02T10:12:42;3.28;;;1.45;;
7503;SDS011;3793;48.136;11.536;2022-08-02T10:15:16;2.28;;;1.35;;
7503;SDS011;3793;48.136;11.536;2022-08-02T10:17:58;2.42;;;1.35;;
7503;SDS011;3793;48.136;11.536;2022-08-02T10:20:29;1.98;;;1.27;;
7503;SDS011;3793;48.136;11.536;2022-08-02T10:22:58;1.50;;;1.30;;
7503;SDS011;3793;48.136;11.536;2022-08-02T10:25:31;1.88;;;1.48;;
7503;SDS011;3793;48.136;11.536;2022-08-02T10:28:08;1.30;;;1.20;;
7503;SDS011;3793;48.136;11.536;2022-08-02T10:30:40;1.60;;;1.50;;
7503;SDS011;3793;48.136;11.536;2022-08-02T10:33:07;1.30;;;1.20;;
7503;SDS011;3793;48.136;11.536;2022-08-02T10:35:36;1.55;;;1.25;;
7503;SDS011;3793;48.136;11.536;2022-08-02T10:38:04;1.85;;;1.60;;
7503;SDS011;3793;48.136;11.536;2022-08-02T10:40:41;1.40;;;1.30;;
7503;SDS011;3793;48.136;11.536;2022-08-02T10:43:09;1.67;;;1.23;;
7503;SDS011;3793;48.136;11.536;2022-08-02T10:45:36;1.98;;;1.42;;
7503;SDS011;3793;48.136;11.536;2022-08-02T10:48:06;2.13;;;1.20;;
7503;SDS011;3793;48.136;11.536;2022-08-02T10:50:51;1.30;;;1.20;;
7503;SDS011;3793;48.136;11.536;2022-08-02T10:53:19;2.65;;;1.73;;
7503;SDS011;3793;48.136;11.536;2022-08-02T10:55:46;2.13;;;1.50;;
7503;SDS011;3793;48.136;11.536;2022-08-02T10:58:18;2.70;;;2.50;;
7503;SDS011;3793;48.136;11.536;2022-08-02T11:00:45;1.50;;;1.05;;
7503;SDS011;3793;48.136;11.536;2022-08-02T11:05:59;3.45;;;1.17;;
7503;SDS011;3793;48.136;11.536;2022-08-02T11:08:26;1.13;;;1.05;;
7503;SDS011;3793;48.136;11.536;2022-08-02T11:10:56;1.23;;;1.13;;
7503;SDS011;3793;48.136;11.536;2022-08-02T11:13:25;2.20;;;1.10;;
7503;SDS011;3793;48.136;11.536;2022-08-02T11:15:58;1.20;;;1.10;;
7503;SDS011;3793;48.136;11.536;2022-08-02T11:21:21;2.15;;;1.00;;
7503;SDS011;3793;48.136;11.536;2022-08-02T11:23:49;1.20;;;1.10;;
7503;SDS011;3793;48.136;11.536;2022-08-02T11:29:03;2.67;;;1.20;;
7503;SDS011;3793;48.136;11.536;2022-08-02T11:31:36;1.67;;;1.08;;
7503;SDS011;3793;48.136;11.536;2022-08-02T11:34:04;1.52;;;1.08;;
7503;SDS011;3793;48.136;11.536;2022-08-02T11:36:30;1.42;;;0.95;;
7503;SDS011;3793;48.136;11.536;2022-08-02T11:39:07;0.93;;;0.93;;
7503;SDS011;3793;48.136;11.536;2022-08-02T11:41:33;1.15;;;1.00;;
7503;SDS011;3793;48.136;11.536;2022-08-02T11:44:02;2.25;;;0.90;;
7503;SDS011;3793;48.136;11.536;2022-08-02T11:46:28;1.38;;;1.10;;
7503;SDS011;3793;48.136;11.536;2022-08-02T11:48:55;1.60;;;1.20;;
7503;SDS011;3793;48.136;11.536;2022-08-02T11:51:22;1.30;;;1.00;;
7503;SDS011;3793;48.136;11.536;2022-08-02T11:53:50;1.20;;;1.10;;
7503;SDS011;3793;48.136;11.536;2022-08-02T11:56:17;0.80;;;0.80;;
7503;SDS011;3793;48.136;11.536;2022-08-02T11:58:59;2.83;;;1.20;;
7503;SDS011;3793;48.136;11.536;2022-08-02T12:01:27;1.10;;;1.00;;
7503;SDS011;3793;48.136;11.536;2022-08-02T12:03:53;3.13;;;1.00;;
7503;SDS011;3793;48.136;11.536;2022-08-02T12:06:24;0.77;;;0.77;;
7503;SDS011;3793;48.136;11.536;2022-08-02T12:08:53;2.25;;;1.15;;
7503;SDS011;3793;48.136;11.536;2022-08-02T12:11:23;1.10;;;1.00;;
7503;SDS011;3793;48.136;11.536;2022-08-02T12:13:50;2.92;;;1.10;;
7503;SDS011;3793;48.136;11.536;2022-08-02T12:16:16;1.45;;;1.20;;
7503;SDS011;3793;48.136;11.536;2022-08-02T12:19:02;1.77;;;0.90;;
7503;SDS011;3793;48.136;11.536;2022-08-02T12:21:44;1.45;;;1.05;;
7503;SDS011;3793;48.136;11.536;2022-08-02T12:24:10;1.85;;;1.15;;
7503;SDS011;3793;48.136;11.536;2022-08-02T12:26:40;2.15;;;1.00;;
7503;SDS011;3793;48.136;11.536;2022-08-02T12:29:07;1.00;;;0.85;;
7503;SDS011;3793;48.136;11.536;2022-08-02T12:31:41;1.48;;;1.30;;
7503;SDS011;3793;48.136;11.536;2022-08-02T12:34:14;1.73;;;1.02;;
7503;SDS011;3793;48.136;11.536;2022-08-02T12:36:41;1.48;;;0.90;;
7503;SDS011;3793;48.136;11.536;2022-08-02T12:39:10;1.23;;;0.90;;
7503;SDS011;3793;48.136;11.536;2022-08-02T12:41:36;1.35;;;1.00;;
7503;SDS011;3793;48.136;11.536;2022-08-02T12:44:03;2.50;;;1.25;;
7503;SDS011;3793;48.136;11.536;2022-08-02T12:46:30;2.35;;;0.70;;
7503;SDS011;3793;48.136;11.536;2022-08-02T12:48:57;1.73;;;1.02;;
7503;SDS011;3793;48.136;11.536;2022-08-02T12:51:26;1.23;;;1.00;;
7503;SDS011;3793;48.136;11.536;2022-08-02T12:53:54;1.92;;;1.00;;
7503;SDS011;3793;48.136;11.536;2022-08-02T12:56:28;1.27;;;0.80;;
7503;SDS011;3793;48.136;11.536;2022-08-02T12:58:55;1.23;;;0.70;;
7503;SDS011;3793;48.136;11.536;2022-08-02T13:01:22;1.63;;;0.88;;
7503;SDS011;3793;48.136;11.536;2022-08-02T13:03:49;1.20;;;1.10;;
7503;SDS011;3793;48.136;11.536;2022-08-02T13:06:16;2.40;;;0.68;;
7503;SDS011;3793;48.136;11.536;2022-08-02T13:08:44;1.20;;;0.93;;
7503;SDS011;3793;48.136;11.536;2022-08-02T13:11:11;1.10;;;1.00;;
7503;SDS011;3793;48.136;11.536;2022-08-02T13:13:37;2.15;;;1.27;;
7503;SDS011;3793;48.136;11.536;2022-08-02T13:16:04;1.02;;;0.80;;
7503;SDS011;3793;48.136;11.536;2022-08-02T13:18:31;1.58;;;0.98;;
7503;SDS011;3793;48.136;11.536;2022-08-02T13:20:58;0.63;;;0.63;;
7503;SDS011;3793;48.136;11.536;2022-08-02T13:23:25;1.15;;;0.90;;
7503;SDS011;3793;48.136;11.536;2022-08-02T13:25:53;1.33;;;0.80;;
7503;SDS011;3793;48.136;11.536;2022-08-02T13:28:20;1.30;;;1.10;;
7503;SDS011;3793;48.136;11.536;2022-08-02T13:30:46;0.80;;;0.80;;
7503;SDS011;3793;48.136;11.536;2022-08-02T13:33:13;3.30;;;0.98;;
7503;SDS011;3793;48.136;11.536;2022-08-02T13:35:40;1.17;;;1.05;;
7503;SDS011;3793;48.136;11.536;2022-08-02T13:38:06;1.80;;;1.05;;
7503;SDS011;3793;48.136;11.536;2022-08-02T13:40:33;1.08;;;0.90;;
7503;SDS011;3793;48.136;11.536;2022-08-02T13:43:21;1.55;;;1.00;;
7503;SDS011;3793;48.136;11.536;2022-08-02T13:45:48;1.80;;;1.70;;
7503;SDS011;3793;48.136;11.536;2022-08-02T13:48:15;1.38;;;1.10;;
7503;SDS011;3793;48.136;11.536;2022-08-02T13:50:42;1.27;;;0.85;;
7503;SDS011;3793;48.136;11.536;2022-08-02T13:53:08;2.30;;;0.93;;
7503;SDS011;3793;48.136;11.536;2022-08-02T13:55:35;1.02;;;0.90;;
7503;SDS011;3793;48.136;11.536;2022-08-02T13:58:02;2.17;;;1.00;;
7503;SDS011;3793;48.136;11.536;2022-08-02T14:00:31;0.85;;;0.70;;
7503;SDS011;3793;48.136;11.536;2022-08-02T14:02:57;0.80;;;0.63;;
7503;SDS011;3793;48.136;11.536;2022-08-02T14:05:24;0.88;;;0.88;;
7503;SDS011;3793;48.136;11.536;2022-08-02T14:07:54;1.02;;;0.93;;
7503;SDS011;3793;48.136;11.536;2022-08-02T14:10:20;1.27;;;0.90;;
7503;SDS011;3793;48.136;11.536;2022-08-02T14:12:49;1.20;;;0.93;;
7503;SDS011;3793;48.136;11.536;2022-08-02T14:15:16;2.55;;;0.85;;
7503;SDS011;3793;48.136;11.536;2022-08-02T14:17:44;0.70;;;0.70;;
7503;SDS011;3793;48.136;11.536;2022-08-02T14:20:11;1.77;;;0.60;;
7503;SDS011;3793;48.136;11.536;2022-08-02T14:22:37;0.80;;;0.60;;
7503;SDS011;3793;48.136;11.536;2022-08-02T14:25:04;0.77;;;0.70;;
7503;SDS011;3793;48.136;11.536;2022-08-02T14:27:31;2.58;;;0.90;;
7503;SDS011;3793;48.136;11.536;2022-08-02T14:29:58;1.00;;;0.90;;
7503;SDS011;3793;48.136;11.536;2022-08-02T14:32:25;1.60;;;0.98;;
7503;SDS011;3793;48.136;11.536;2022-08-02T14:34:53;2.05;;;1.00;;
7503;SDS011;3793;48.136;11.536;2022-08-02T14:37:19;2.80;;;1.00;;
7503;SDS011;3793;48.136;11.536;2022-08-02T14:39:46;0.85;;;0.85;;
7503;SDS011;3793;48.136;11.536;2022-08-02T14:42:13;1.35;;;0.95;;
7503;SDS011;3793;48.136;11.536;2022-08-02T14:44:39;3.17;;;0.70;;
7503;SDS011;3793;48.136;11.536;2022-08-02T14:47:06;2.25;;;1.00;;
7503;SDS011;3793;48.136;11.536;2022-08-02T14:49:33;2.78;;;0.82;;
7503;SDS011;3793;48.136;11.536;2022-08-02T14:52:02;3.80;;;1.17;;
7503;SDS011;3793;48.136;11.536;2022-08-02T14:54:28;1.13;;;0.95;;
7503;SDS011;3793;48.136;11.536;2022-08-02T14:56:56;1.00;;;0.75;;
7503;SDS011;3793;48.136;11.536;2022-08-02T14:59:22;2.05;;;1.05;;
7503;SDS011;3793;48.136;11.536;2022-08-02T15:01:49;1.58;;;1.02;;
7503;SDS011;3793;48.136;11.536;2022-08-02T15:04:15;2.13;;;1.10;;
7503;SDS011;3793;48.136;11.536;2022-08-02T15:06:42;1.15;;;1.05;;
7503;SDS011;3793;48.136;11.536;2022-08-02T15:09:10;0.60;;;0.60;;
7503;SDS011;3793;48.136;11.536;2022-08-02T15:11:38;0.80;;;0.80;;
7503;SDS011;3793;48.136;11.536;2022-08-02T15:14:05;1.27;;;1.00;;
7503;SDS011;3793;48.136;11.536;2022-08-02T15:16:31;1.10;;;0.93;;
7503;SDS011;3793;48.136;11.536;2022-08-02T15:19:00;0.98;;;0.85;;
7503;SDS011;3793;48.136;11.536;2022-08-02T15:21:26;1.48;;;0.80;;
7503;SDS011;3793;48.136;11.536;2022-08-02T15:23:53;0.85;;;0.65;;
7503;SDS011;3793;48.136;11.536;2022-08-02T15:26:21;1.27;;;0.65;;
7503;SDS011;3793;48.136;11.536;2022-08-02T15:28:48;0.80;;;0.80;;
7503;SDS011;3793;48.136;11.536;2022-08-02T15:31:15;2.30;;;0.60;;
7503;SDS011;3793;48.136;11.536;2022-08-02T15:33:42;1.08;;;0.65;;
7503;SDS011;3793;48.136;11.536;2022-08-02T15:36:09;0.90;;;0.55;;
7503;SDS011;3793;48.136;11.536;2022-08-02T15:38:36;0.77;;;0.70;;
7503;SDS011;3793;48.136;11.536;2022-08-02T15:41:02;0.75;;;0.40;;
7503;SDS011;3793;48.136;11.536;2022-08-02T15:43:31;0.70;;;0.70;;
7503;SDS011;3793;48.136;11.536;2022-08-02T15:46:00;0.95;;;0.85;;
7503;SDS011;3793;48.136;11.536;2022-08-02T15:48:26;1.00;;;0.50;;
7503;SDS011;3793;48.136;11.536;2022-08-02T15:50:53;1.67;;;0.80;;